Time;durP1;ratioP1;P1;durP2;ratioP2;P2;SDS_P1;SDS_P2;PMS_P1;PMS_P2;Temp;Humidity;BMP_temperature;BMP_pressure;BME280_temperature;BME280_humidity;BME280_pressure;Samples;Min_cycle;Max_cycle;Signal;HPM_P1;HPM_P2
2023/02/10 00:01:35;;;;;;;36.60;18.80;;;;;;;-1.36;73.88;102101.86;105614;1264;96654;-79
2023/02/10 00:04:20;;;;;;;44.10;20.70;;;;;;;-1.39;73.99;102094.99;105629;1263;100099;-79
2023/02/10 00:07:05;;;;;;;36.70;17.50;;;;;;;-1.40;74.08;102088.21;105610;1279;100518;-80
2023/02/10 00:09:49;;;;;;;36.80;19.60;;;;;;;-1.40;74.15;102088.39;105440;1264;97710;-79
2023/02/10 00:12:37;;;;;;;39.10;19.40;;;;;;;-1.40;74.25;102085.73;105444;1264;96765;-79
2023/02/10 00:15:22;;;;;;;36.80;17.40;;;;;;;-1.39;74.26;102088.52;105544;1267;96891;-80
2023/02/10 00:18:07;;;;;;;33.70;16.80;;;;;;;-1.40;74.21;102086.80;105601;1263;100098;-80
2023/02/10 00:20:52;;;;;;;41.60;19.80;;;;;;;-1.42;74.23;102082.70;105504;1280;99150;-80
2023/02/10 00:23:36;;;;;;;43.70;19.40;;;;;;;-1.42;74.27;102081.14;105628;1264;97833;-79
2023/02/10 00:26:21;;;;;;;38.30;18.40;;;;;;;-1.42;74.35;102078.67;105539;1264;96676;-79
2023/02/10 00:29:06;;;;;;;44.60;20.90;;;;;;;-1.42;74.36;102075.16;105636;1268;96644;-78
2023/02/10 00:31:52;;;;;;;36.00;18.30;;;;;;;-1.42;74.22;102074.65;106730;1264;100652;-80
2023/02/10 00:34:37;;;;;;;41.40;19.70;;;;;;;-1.45;74.17;102067.39;105674;1267;100469;-79
2023/02/10 00:37:21;;;;;;;39.10;19.90;;;;;;;-1.48;74.21;102066.34;105532;1268;97878;-79
2023/02/10 00:40:06;;;;;;;36.30;19.80;;;;;;;-1.49;74.32;102074.64;105481;1270;96561;-80
2023/02/10 00:42:51;;;;;;;38.20;18.80;;;;;;;-1.50;74.32;102074.35;105571;1270;96529;-80
2023/02/10 00:45:36;;;;;;;40.20;20.30;;;;;;;-1.52;74.34;102073.73;105613;1263;100929;-80
2023/02/10 00:48:20;;;;;;;34.00;18.10;;;;;;;-1.53;74.33;102071.84;105607;1270;100032;-79
2023/02/10 00:51:06;;;;;;;38.50;20.20;;;;;;;-1.55;74.25;102075.42;105601;1264;97791;-80
2023/02/10 00:53:52;;;;;;;38.50;18.90;;;;;;;-1.57;74.43;102080.63;105357;1269;96551;-80
2023/02/10 00:56:37;;;;;;;39.50;18.90;;;;;;;-1.57;74.43;102077.09;105584;1263;97802;-80
2023/02/10 00:59:21;;;;;;;40.30;19.80;;;;;;;-1.58;74.40;102074.17;105514;1270;100685;-80
2023/02/10 01:02:06;;;;;;;38.00;19.90;;;;;;;-1.59;74.37;102071.76;105802;1264;99133;-79
2023/02/10 01:04:51;;;;;;;41.70;19.00;;;;;;;-1.60;74.46;102071.48;105616;1264;98316;-80
2023/02/10 01:07:35;;;;;;;37.60;18.20;;;;;;;-1.62;74.40;102069.98;105613;1267;96468;-80
2023/02/10 01:10:20;;;;;;;35.20;18.60;;;;;;;-1.63;74.40;102069.33;105715;1264;96819;-80
2023/02/10 01:13:06;;;;;;;37.20;19.10;;;;;;;-1.64;74.44;102066.93;105674;1264;100061;-80
2023/02/10 01:15:51;;;;;;;38.30;18.10;;;;;;;-1.66;74.54;102064.02;105579;1264;100285;-80
2023/02/10 01:18:38;;;;;;;34.50;17.90;;;;;;;-1.66;74.50;102065.27;105553;1269;97747;-80
2023/02/10 01:21:23;;;;;;;40.00;18.30;;;;;;;-1.65;74.55;102069.06;105596;1264;96573;-79
2023/02/10 01:24:09;;;;;;;34.80;19.10;;;;;;;-1.65;74.54;102066.98;105637;1263;97766;-80
2023/02/10 01:26:54;;;;;;;39.00;18.40;;;;;;;-1.65;74.61;102062.25;105449;1270;100185;-79
2023/02/10 01:29:38;;;;;;;38.00;19.50;;;;;;;-1.65;74.72;102058.04;105527;1269;99953;-81
2023/02/10 01:32:23;;;;;;;37.90;19.70;;;;;;;-1.64;74.64;102062.73;105655;1263;97731;-79
2023/02/10 01:35:07;;;;;;;39.00;18.30;;;;;;;-1.64;74.70;102060.29;105599;1270;95828;-79
2023/02/10 01:37:54;;;;;;;38.70;20.70;;;;;;;-1.64;74.77;102057.29;105548;1263;96621;-80
2023/02/10 01:40:39;;;;;;;46.20;19.80;;;;;;;-1.65;74.71;102055.77;105629;1267;99956;-81
2023/02/10 01:43:23;;;;;;;37.00;19.20;;;;;;;-1.65;74.63;102053.33;105817;1267;99840;-79
2023/02/10 01:46:08;;;;;;;38.00;19.50;;;;;;;-1.64;74.68;102055.58;105546;1264;97668;-79
2023/02/10 01:48:55;;;;;;;40.50;20.00;;;;;;;-1.64;74.76;102049.41;105575;1263;96628;-80
2023/02/10 01:52:05;;;;;;;40.40;18.10;;;;;;;-1.62;74.74;102050.05;105638;1263;97073;-79
2023/02/10 01:54:57;;;;;;;39.00;19.10;;;;;;;-1.61;74.62;102047.20;105699;1267;101894;-80
2023/02/10 01:57:45;;;;;;;37.20;18.90;;;;;;;-1.62;74.61;102042.33;105608;1270;100462;-80
2023/02/10 02:00:30;;;;;;;37.50;19.00;;;;;;;-1.62;74.64;102039.86;105712;1263;97756;-80
2023/02/10 02:03:15;;;;;;;37.90;19.40;;;;;;;-1.62;74.60;102042.33;105619;1264;96632;-79
2023/02/10 02:05:59;;;;;;;38.10;18.60;;;;;;;-1.64;74.58;102041.53;105811;1267;96494;-80
2023/02/10 02:08:44;;;;;;;39.80;19.60;;;;;;;-1.64;74.51;102037.18;105526;1263;101437;-80
2023/02/10 02:11:56;;;;;;;39.10;19.40;;;;;;;-1.66;74.43;102033.77;105738;1265;99153;-79
2023/02/10 02:14:57;;;;;;;39.20;19.20;;;;;;;-1.69;74.48;102032.16;105411;1265;98573;-79
2023/02/10 02:17:52;;;;;;;;;;;;;;;-1.71;74.48;102030.02;106153;1263;97507;-80
2023/02/10 02:21:09;;;;;;;39.40;17.40;;;;;;;-1.73;74.62;102032.35;105548;1263;96711;-79
2023/02/10 02:24:15;;;;;;;38.20;19.20;;;;;;;-1.72;74.73;102029.34;106107;1263;101483;-81
2023/02/10 02:27:14;;;;;;;36.40;19.10;;;;;;;-1.71;74.67;102030.16;105559;1264;100610;-79
2023/02/10 02:30:09;;;;;;;38.00;19.40;;;;;;;-1.72;74.63;102036.16;105636;1263;97787;-80
2023/02/10 02:33:03;;;;;;;38.60;20.30;;;;;;;-1.71;74.64;102043.65;106206;1264;96690;-80
2023/02/10 02:36:02;;;;;;;39.10;18.70;;;;;;;-1.70;74.69;102046.07;106110;1264;97224;-80
2023/02/10 02:38:47;;;;;;;38.00;19.30;;;;;;;-1.71;74.69;102044.51;107251;1264;99999;-80
2023/02/10 02:41:33;;;;;;;40.90;19.20;;;;;;;-1.71;74.77;102045.55;105530;1268;100305;-81
2023/02/10 02:44:18;;;;;;;36.90;19.40;;;;;;;-1.70;74.81;102047.11;106121;1263;98431;-80
2023/02/10 02:47:16;;;;;;;37.80;18.50;;;;;;;-1.68;74.81;102052.62;106345;1263;96625;-80
2023/02/10 02:50:31;;;;;;;43.20;22.00;;;;;;;-1.67;74.95;102052.19;106242;1264;96629;-79
2023/02/10 02:53:35;;;;;;;41.00;19.40;;;;;;;-1.66;74.85;102044.25;105521;1269;100131;-81
2023/02/10 02:56:41;;;;;;;37.70;19.20;;;;;;;-1.67;74.67;102038.02;105562;1268;140944;-79
2023/02/10 02:59:35;;;;;;;33.00;19.20;;;;;;;-1.71;74.69;102028.23;105511;1265;99703;-80
2023/02/10 03:02:21;;;;;;;39.30;19.90;;;;;;;-1.73;74.67;102032.02;105594;1264;96548;-80
2023/02/10 03:05:09;;;;;;;36.10;19.00;;;;;;;-1.75;74.77;102035.42;105685;1263;96509;-79
2023/02/10 03:07:55;;;;;;;40.20;18.60;;;;;;;-1.77;74.86;102026.97;105697;1264;100064;-79
2023/02/10 03:10:39;;;;;;;36.80;19.90;;;;;;;-1.79;74.86;102026.51;106329;1263;99104;-81
2023/02/10 03:13:24;;;;;;;39.40;19.20;;;;;;;-1.79;74.87;102031.77;106153;1264;97777;-81
2023/02/10 03:16:09;;;;;;;36.90;19.90;;;;;;;-1.80;74.83;102041.11;106284;1263;96689;-80
2023/02/10 03:18:53;;;;;;;38.50;18.80;;;;;;;-1.79;74.96;102049.45;106283;1263;97155;-81
2023/02/10 03:21:38;;;;;;;37.60;18.50;;;;;;;-1.78;74.87;102039.45;106276;1264;99983;-80
2023/02/10 03:24:23;;;;;;;35.30;18.00;;;;;;;-1.78;74.78;102029.98;106061;1264;99038;-80
2023/02/10 03:27:08;;;;;;;37.60;19.10;;;;;;;-1.81;74.77;102020.85;106390;1263;97789;-80
2023/02/10 03:29:53;;;;;;;37.80;18.90;;;;;;;-1.83;74.86;102016.02;106225;1263;96669;-80
2023/02/10 03:32:38;;;;;;;37.20;19.50;;;;;;;-1.85;74.79;102020.14;106205;1263;97050;-81
2023/02/10 03:35:23;;;;;;;40.30;19.80;;;;;;;-1.87;74.80;102018.52;106375;1264;100628;-80
2023/02/10 03:38:08;;;;;;;37.40;18.10;;;;;;;-1.89;74.80;102023.31;106341;1264;100016;-81
2023/02/10 03:40:53;;;;;;;38.30;18.70;;;;;;;-1.90;74.91;102020.38;106440;1266;97931;-80
2023/02/10 03:43:38;;;;;;;31.50;17.40;;;;;;;-1.90;74.87;102019.70;106327;1264;96800;-80
2023/02/10 03:46:22;;;;;;;41.30;19.20;;;;;;;-1.90;74.97;102022.17;106381;1267;97240;-80
2023/02/10 03:49:07;;;;;;;33.20;18.30;;;;;;;-1.93;74.96;102017.90;105881;1264;99924;-80
2023/02/10 03:51:52;;;;;;;39.10;18.80;;;;;;;-1.95;74.95;102017.33;105962;1264;99710;-80
2023/02/10 03:54:37;;;;;;;36.30;17.20;;;;;;;-1.97;75.12;102021.07;106367;1263;98539;-80
2023/02/10 03:57:21;;;;;;;38.50;17.70;;;;;;;-1.96;75.17;102028.59;106347;1264;96430;-81
2023/02/10 04:00:07;;;;;;;34.90;18.20;;;;;;;-1.97;75.14;102028.80;106349;1264;96546;-80
2023/02/10 04:02:57;;;;;;;41.50;18.10;;;;;;;-1.98;75.16;102040.22;106361;1262;99939;-80
2023/02/10 04:05:42;;;;;;;35.80;18.50;;;;;;;-1.98;75.30;102045.64;105983;1264;100505;-81
2023/02/10 04:08:27;;;;;;;35.90;18.50;;;;;;;-1.95;75.38;102052.00;106322;1266;98382;-79
2023/02/10 04:11:13;;;;;;;38.30;18.80;;;;;;;-1.92;75.34;102051.83;106367;1262;96586;-80
2023/02/10 04:13:58;;;;;;;41.30;19.80;;;;;;;-1.90;75.22;102044.05;106072;1267;96637;-80
2023/02/10 04:16:43;;;;;;;37.50;18.90;;;;;;;-1.89;75.25;102036.45;106322;1264;100720;-79
2023/02/10 04:19:27;;;;;;;34.20;18.50;;;;;;;-1.86;75.44;102040.52;106156;1264;99205;-79
2023/02/10 04:22:12;;;;;;;37.00;19.80;;;;;;;-1.83;75.53;102045.42;105658;1268;98330;-80
2023/02/10 04:24:57;;;;;;;32.60;18.70;;;;;;;-1.78;75.70;102052.03;105654;1263;96608;-78
2023/02/10 04:27:41;;;;;;;41.40;20.90;;;;;;;-1.73;75.85;102047.22;105665;1263;96852;-80
2023/02/10 04:30:26;;;;;;;36.40;18.30;;;;;;;-1.68;75.80;102040.67;105695;1263;100066;-80
2023/02/10 04:33:11;;;;;;;39.20;19.90;;;;;;;-1.64;75.85;102036.48;106293;1264;99725;-80
2023/02/10 04:35:56;;;;;;;37.30;18.80;;;;;;;-1.60;75.96;102036.96;105796;1262;97685;-79
2023/02/10 04:38:41;;;;;;;34.20;18.20;;;;;;;-1.56;75.96;102032.73;105788;1262;96553;-80
2023/02/10 04:41:26;;;;;;;39.50;18.60;;;;;;;-1.52;76.02;102025.75;105760;1264;96910;-80
2023/02/10 04:44:10;;;;;;;33.60;17.50;;;;;;;-1.48;75.97;102020.48;105712;1264;100227;-79
2023/02/10 04:46:55;;;;;;;36.80;19.00;;;;;;;-1.47;75.82;102016.02;105753;1262;99854;-81
2023/02/10 04:49:40;;;;;;;36.70;18.70;;;;;;;-1.44;75.90;102016.95;105728;1264;97884;-80
2023/02/10 04:52:25;;;;;;;39.30;19.90;;;;;;;-1.42;75.93;102016.48;105709;1263;97503;-80
2023/02/10 04:55:10;;;;;;;41.00;20.40;;;;;;;-1.40;76.04;102020.77;105703;1264;95908;-79
2023/02/10 04:57:55;;;;;;;35.30;18.70;;;;;;;-1.37;76.06;102029.69;105740;1264;100083;-79
2023/02/10 05:00:40;;;;;;;37.40;19.40;;;;;;;-1.33;76.02;102028.11;105631;1266;99175;-80
2023/02/10 05:03:25;;;;;;;43.30;19.70;;;;;;;-1.30;76.22;102016.36;105609;1264;99087;-81
2023/02/10 05:06:13;;;;;;;45.60;21.20;;;;;;;-1.27;76.12;102020.26;105666;1264;96738;-79
2023/02/10 05:08:59;;;;;;;39.90;20.20;;;;;;;-1.24;76.33;102027.64;105678;1264;98277;-80
2023/02/10 05:11:43;;;;;;;35.10;18.10;;;;;;;-1.20;76.35;102037.78;106337;1264;100773;-79
2023/02/10 05:14:28;;;;;;;38.20;19.00;;;;;;;-1.17;76.38;102049.02;105674;1262;99898;-79
2023/02/10 05:17:13;;;;;;;39.80;19.90;;;;;;;-1.14;76.47;102050.45;105735;1262;99390;-79
2023/02/10 05:19:58;;;;;;;37.20;19.90;;;;;;;-1.11;76.66;102052.55;105750;1264;97499;-79
2023/02/10 05:22:42;;;;;;;36.60;19.70;;;;;;;-1.07;76.64;102052.20;105705;1262;97234;-79
2023/02/10 05:25:27;;;;;;;35.00;19.30;;;;;;;-1.05;76.67;102050.33;105742;1264;100909;-79
2023/02/10 05:28:12;;;;;;;38.20;19.00;;;;;;;-1.02;76.69;102047.55;105704;1264;99382;-79
2023/02/10 05:30:57;;;;;;;35.40;20.10;;;;;;;-1.00;76.88;102044.11;105841;1264;98607;-81
2023/02/10 05:33:42;;;;;;;41.70;20.20;;;;;;;-0.98;76.79;102044.00;106223;1268;96411;-82
2023/02/10 05:36:27;;;;;;;41.40;19.60;;;;;;;-0.96;76.81;102052.47;106357;1264;96727;-82
2023/02/10 05:39:24;;;;;;;37.30;18.40;;;;;;;-0.93;76.98;102049.54;106269;1264;100008;-82
2023/02/10 05:42:09;;;;;;;44.60;20.70;;;;;;;-0.91;77.04;102048.20;105269;1264;99164;-79
2023/02/10 05:44:53;;;;;;;37.60;19.00;;;;;;;-0.89;77.21;102049.83;105346;1262;97876;-82
2023/02/10 05:47:38;;;;;;;35.90;19.30;;;;;;;-0.86;77.23;102047.08;106228;1267;96727;-82
2023/02/10 05:50:23;;;;;;;39.80;19.60;;;;;;;-0.85;77.35;102053.14;106354;1266;97407;-82
2023/02/10 05:53:09;;;;;;;42.00;21.10;;;;;;;-0.83;77.35;102045.67;106281;1264;101882;-79
2023/02/10 05:55:54;;;;;;;37.20;19.50;;;;;;;-0.81;77.50;102045.75;106364;1264;101372;-82
2023/02/10 05:58:38;;;;;;;39.10;19.90;;;;;;;-0.79;77.47;102044.40;106236;1264;97699;-81
2023/02/10 06:01:23;;;;;;;40.20;20.30;;;;;;;-0.77;77.42;102051.66;106216;1264;96621;-82
2023/02/10 06:04:08;;;;;;;41.80;20.70;;;;;;;-0.74;77.69;102049.26;106025;1264;97153;-79
2023/02/10 06:06:54;;;;;;;40.30;21.00;;;;;;;-0.72;77.77;102052.80;106065;1264;99988;-81
2023/02/10 06:09:39;;;;;;;42.10;22.00;;;;;;;-0.71;77.70;102046.09;106310;1264;100447;-79
2023/02/10 06:12:24;;;;;;;34.00;20.60;;;;;;;-0.69;77.71;102045.48;105701;1267;99155;-81
2023/02/10 06:15:09;;;;;;;46.70;21.50;;;;;;;-0.68;77.60;102045.95;105655;1264;96760;-79
2023/02/10 06:17:53;;;;;;;37.90;21.40;;;;;;;-0.67;77.66;102047.84;105739;1264;96634;-81
2023/02/10 06:20:38;;;;;;;42.00;22.70;;;;;;;-0.65;77.78;102044.75;105799;1267;101421;-80
2023/02/10 06:23:24;;;;;;;43.60;21.60;;;;;;;-0.64;77.85;102042.40;105814;1264;99289;-79
2023/02/10 06:26:10;;;;;;;36.90;20.80;;;;;;;-0.62;77.83;102043.35;105635;1265;97696;-79
2023/02/10 06:28:56;;;;;;;45.20;20.80;;;;;;;-0.61;77.86;102045.77;105594;1264;96725;-80
2023/02/10 06:31:40;;;;;;;42.90;21.30;;;;;;;-0.60;77.98;102045.16;105742;1269;96628;-80
2023/02/10 06:34:25;;;;;;;39.40;18.40;;;;;;;-0.59;78.05;102044.94;105623;1264;100744;-80
2023/02/10 06:37:09;;;;;;;34.50;19.40;;;;;;;-0.58;78.02;102051.95;105676;1267;99102;-79
2023/02/10 06:39:54;;;;;;;35.70;21.40;;;;;;;-0.59;78.00;102058.29;105768;1264;98696;-80
2023/02/10 06:42:39;;;;;;;45.20;22.80;;;;;;;-0.60;78.00;102062.19;105660;1264;96792;-79
2023/02/10 06:45:24;;;;;;;49.00;22.70;;;;;;;-0.60;78.11;102064.30;105573;1264;97238;-81
2023/02/10 06:48:08;;;;;;;43.90;23.40;;;;;;;-0.61;78.14;102064.02;105624;1264;100780;-79
2023/02/10 06:50:53;;;;;;;44.50;21.60;;;;;;;-0.63;78.13;102062.52;105671;1267;100184;-81
2023/02/10 06:53:38;;;;;;;47.30;24.70;;;;;;;-0.64;78.36;102063.64;105583;1267;97761;-79
2023/02/10 06:56:23;;;;;;;42.80;22.30;;;;;;;-0.63;78.46;102063.27;105587;1264;97390;-79
2023/02/10 06:59:07;;;;;;;43.30;22.70;;;;;;;-0.64;78.59;102068.04;105701;1264;97169;-81
2023/02/10 07:01:59;;;;;;;41.30;21.40;;;;;;;-0.65;78.68;102070.54;105625;1264;101956;-79
2023/02/10 07:04:45;;;;;;;43.70;24.30;;;;;;;-0.68;78.79;102074.20;105689;1267;100767;-80
2023/02/10 07:07:29;;;;;;;45.20;22.30;;;;;;;-0.71;79.01;102085.21;105695;1264;97809;-79
2023/02/10 07:10:14;;;;;;;43.70;22.50;;;;;;;-0.71;79.18;102096.08;105650;1263;96752;-79
2023/02/10 07:16:36;;;;;;;43.90;21.90;;;;;;;-0.68;79.35;102099.84;105923;1263;100158;-93
2023/02/10 07:19:22;;;;;;;37.70;21.10;;;;;;;-0.69;79.44;102099.52;106053;1269;99944;-77
2023/02/10 07:22:07;;;;;;;45.50;25.00;;;;;;;-0.67;79.43;102091.66;105246;1267;97799;-80
2023/02/10 07:24:51;;;;;;;47.50;26.20;;;;;;;-0.64;79.43;102092.90;105112;1269;96994;-79
2023/02/10 07:27:36;;;;;;;47.80;25.20;;;;;;;-0.59;79.64;102096.73;105264;1270;96550;-79
2023/02/10 07:30:23;;;;;;;95.60;47.00;;;;;;;-0.53;79.59;102105.50;105747;1267;101757;-83
2023/02/10 07:33:13;;;;;;;87.90;44.30;;;;;;;-0.45;79.56;102108.09;105678;1270;99041;-89
2023/02/10 07:36:02;;;;;;;70.60;39.80;;;;;;;-0.40;79.68;102110.61;105516;1273;97799;-77
2023/02/10 07:38:47;;;;;;;51.40;28.50;;;;;;;-0.34;79.79;102119.73;104805;1271;96877;-78
2023/02/10 07:41:32;;;;;;;49.50;28.30;;;;;;;-0.28;79.77;102117.69;105721;1266;97189;-79
2023/02/10 07:44:17;;;;;;;50.90;28.40;;;;;;;-0.22;79.75;102112.80;105538;1268;100013;-76
2023/02/10 07:47:02;;;;;;;49.00;27.10;;;;;;;-0.17;79.84;102105.88;104748;1265;99258;-76
2023/02/10 07:49:47;;;;;;;49.60;27.40;;;;;;;-0.13;79.73;102102.16;104779;1269;97803;-77
2023/02/10 07:52:31;;;;;;;49.30;27.70;;;;;;;-0.11;79.88;102097.64;104746;1267;96828;-75
2023/02/10 07:55:16;;;;;;;47.80;26.60;;;;;;;-0.09;79.83;102089.60;104673;1264;99306;-75
2023/02/10 07:58:01;;;;;;;46.80;24.90;;;;;;;-0.07;80.18;102084.60;105434;1265;101367;-76
2023/02/10 08:00:46;;;;;;;51.00;25.50;;;;;;;-0.06;80.16;102083.83;104625;1269;100432;-75
2023/02/10 08:03:31;;;;;;;48.50;26.20;;;;;;;-0.04;80.38;102084.77;104485;1263;99080;-75
2023/02/10 08:06:25;;;;;;;47.00;25.60;;;;;;;-0.00;80.43;102088.98;104499;1268;98038;-75
2023/02/10 08:09:10;;;;;;;44.30;23.70;;;;;;;0.02;80.50;102090.61;105028;1267;96622;-79
2023/02/10 08:11:55;;;;;;;49.50;23.90;;;;;;;0.05;80.69;102101.16;105078;1266;100044;-77
2023/02/10 08:14:40;;;;;;;44.80;23.80;;;;;;;0.09;80.93;102106.20;105464;1267;99169;-78
2023/02/10 08:17:25;;;;;;;48.90;26.90;;;;;;;0.13;80.96;102113.02;105119;1267;99180;-78
2023/02/10 08:20:10;;;;;;;48.90;26.90;;;;;;;0.16;81.11;102114.44;104748;1272;96641;-77
2023/02/10 08:22:57;;;;;;;46.60;25.80;;;;;;;0.20;81.24;102107.73;104592;1269;97169;-78
2023/02/10 08:25:42;;;;;;;48.50;24.80;;;;;;;0.24;81.22;102096.09;104640;1273;102029;-77
2023/02/10 08:28:26;;;;;;;51.20;27.90;;;;;;;0.28;81.39;102099.55;104725;1270;100402;-77
2023/02/10 08:31:11;;;;;;;51.60;27.50;;;;;;;0.30;81.56;102099.59;104483;1267;98970;-77
2023/02/10 08:33:56;;;;;;;44.60;24.80;;;;;;;0.32;81.35;102099.29;104413;1272;97039;-77
2023/02/10 08:36:42;;;;;;;51.80;26.00;;;;;;;0.32;81.27;102100.16;104484;1270;96555;-77
2023/02/10 08:39:29;;;;;;;51.50;25.30;;;;;;;0.33;81.10;102105.95;104537;1269;100118;-77
2023/02/10 08:42:13;;;;;;;62.30;30.60;;;;;;;0.34;81.23;102102.21;104794;1267;100312;-77
2023/02/10 08:44:59;;;;;;;56.10;27.40;;;;;;;0.35;81.12;102105.98;104556;1272;99007;-77
2023/02/10 08:47:43;;;;;;;66.60;35.40;;;;;;;0.37;81.08;102115.75;104482;1270;96645;-77
2023/02/10 08:50:28;;;;;;;55.60;29.50;;;;;;;0.38;81.06;102113.21;104775;1273;96566;-77
2023/02/10 08:53:13;;;;;;;53.40;29.30;;;;;;;0.41;81.35;102116.56;104671;1273;101705;-79
2023/02/10 08:56:05;;;;;;;54.20;30.90;;;;;;;0.43;81.39;102121.02;104923;1274;100511;-76
2023/02/10 08:58:50;;;;;;;53.30;29.60;;;;;;;0.43;81.24;102124.01;105677;1268;98793;-79
2023/02/10 09:01:36;;;;;;;58.40;29.30;;;;;;;0.44;81.11;102125.02;105164;1270;96639;-80
2023/02/10 09:04:21;;;;;;;50.70;27.50;;;;;;;0.44;81.21;102133.06;105103;1272;96645;-78
2023/02/10 09:07:06;;;;;;;47.60;28.50;;;;;;;0.47;81.28;102137.64;105169;1272;100823;-79
2023/02/10 09:09:51;;;;;;;51.20;26.20;;;;;;;0.48;81.27;102139.51;105228;1270;99465;-79
2023/02/10 09:12:37;;;;;;;59.20;31.80;;;;;;;0.50;81.33;102142.05;105190;1272;99485;-80
2023/02/10 09:15:22;;;;;;;53.50;30.70;;;;;;;0.53;81.38;102140.96;105517;1272;96813;-79
2023/02/10 09:18:07;;;;;;;61.40;36.70;;;;;;;0.60;81.64;102137.80;105345;1270;97191;-78
2023/02/10 09:20:52;;;;;;;76.60;42.30;;;;;;;0.67;81.72;102137.05;104949;1272;100130;-78
2023/02/10 09:23:37;;;;;;;67.50;38.30;;;;;;;0.72;81.59;102145.72;104918;1270;99096;-79
2023/02/10 09:26:22;;;;;;;62.10;36.70;;;;;;;0.74;81.56;102148.03;104776;1271;99244;-77
2023/02/10 09:29:07;;;;;;;82.90;39.40;;;;;;;0.77;81.67;102153.52;104936;1267;96636;-79
2023/02/10 09:31:52;;;;;;;61.90;32.70;;;;;;;0.78;81.58;102151.86;104850;1270;97083;-78
2023/02/10 09:34:37;;;;;;;68.50;33.30;;;;;;;0.81;81.54;102147.35;104754;1267;100068;-77
2023/02/10 09:37:21;;;;;;;62.20;32.00;;;;;;;0.84;81.57;102146.84;104795;1267;100471;-77
2023/02/10 09:40:06;;;;;;;63.40;34.60;;;;;;;0.86;81.53;102154.10;104800;1267;99224;-78
2023/02/10 09:43:02;;;;;;;65.90;37.60;;;;;;;0.88;81.67;102166.46;104775;1267;97494;-78
2023/02/10 09:45:58;;;;;;;56.10;30.20;;;;;;;0.88;81.65;102165.92;104591;1267;96502;-79
2023/02/10 09:49:18;;;;;;;58.50;27.80;;;;;;;0.87;81.78;102164.95;104601;1270;101235;-78
2023/02/10 09:52:40;;;;;;;58.80;31.10;;;;;;;0.87;81.98;102174.97;104959;1266;100121;-77
2023/02/10 09:55:30;;;;;;;60.10;31.70;;;;;;;0.90;82.22;102174.64;105113;1267;99200;-81
2023/02/10 09:58:21;;;;;;;47.70;26.20;;;;;;;0.93;82.30;102173.73;105035;1270;96663;-79
2023/02/10 10:01:06;;;;;;;83.80;40.20;;;;;;;0.93;82.25;102171.23;104992;1272;96552;-78
2023/02/10 10:03:54;;;;;;;97.30;48.10;;;;;;;0.95;82.58;102160.27;104935;1267;100095;-79
2023/02/10 10:06:42;;;;;;;140.90;61.50;;;;;;;0.98;82.64;102154.81;105026;1267;99187;-79
2023/02/10 10:09:45;;;;;;;108.60;55.50;;;;;;;1.00;82.71;102140.59;105360;1266;98878;-80
2023/02/10 10:12:29;;;;;;;66.80;38.40;;;;;;;1.04;82.82;102127.72;104945;1270;96775;-78
2023/02/10 10:15:16;;;;;;;57.20;30.40;;;;;;;1.07;82.92;102128.75;105037;1267;98260;-83
2023/02/10 10:18:16;;;;;;;49.80;26.90;;;;;;;1.10;82.87;102133.70;104655;1271;100140;-80
2023/02/10 10:21:22;;;;;;;50.40;28.10;;;;;;;1.12;82.85;102132.86;105013;1267;99323;-76
2023/02/10 10:24:20;;;;;;;48.90;25.90;;;;;;;1.17;82.90;102131.52;104981;1267;99089;-84
2023/02/10 10:27:34;;;;;;;53.00;26.70;;;;;;;1.19;82.94;102144.39;105460;1270;96660;-85
2023/02/10 10:30:32;;;;;;;53.60;25.30;;;;;;;1.18;82.97;102147.45;104748;1273;98476;-76
2023/02/10 10:33:24;;;;;;;50.30;27.20;;;;;;;1.15;82.97;102148.34;104459;1270;100083;-77
2023/02/10 10:36:22;;;;;;;45.30;25.60;;;;;;;1.13;83.06;102152.47;104576;1270;100431;-77
2023/02/10 10:39:32;;;;;;;47.30;26.50;;;;;;;1.19;83.36;102156.02;105211;1270;99400;-77
2023/02/10 10:42:46;;;;;;;62.20;32.20;;;;;;;1.24;83.37;102144.46;104485;1270;96618;-77
2023/02/10 10:45:42;;;;;;;60.80;29.30;;;;;;;1.30;83.51;102146.77;105015;1267;96641;-86
2023/02/10 10:48:30;;;;;;;54.40;27.40;;;;;;;1.36;83.52;102149.40;104729;1267;101155;-76
2023/02/10 10:51:16;;;;;;;61.70;28.90;;;;;;;1.42;83.56;102147.59;104852;1267;99151;-76
2023/02/10 10:54:03;;;;;;;62.50;33.10;;;;;;;1.48;83.39;102140.74;104905;1268;97975;-78
2023/02/10 10:56:55;;;;;;;70.30;32.90;;;;;;;1.50;83.40;102150.84;104973;1267;97088;-87
2023/02/10 10:59:45;;;;;;;55.00;27.60;;;;;;;1.50;83.58;102157.70;105125;1273;97176;-87
2023/02/10 11:06:05;;;;;;;90.00;41.20;;;;;;;1.55;83.63;102150.36;102392;1269;96520;-81
2023/02/10 11:09:22;;;;;;;71.50;36.60;;;;;;;1.59;83.53;102155.07;106091;1267;98000;-89
2023/02/10 11:12:44;;;;;;;61.00;32.20;;;;;;;1.62;83.62;102152.41;105971;1273;96577;-89
2023/02/10 11:15:38;;;;;;;56.10;28.70;;;;;;;1.65;83.54;102148.19;105610;1268;97139;-81
2023/02/10 11:18:23;;;;;;;62.50;29.10;;;;;;;1.66;83.61;102147.40;105272;1273;101311;-77
2023/02/10 11:21:10;;;;;;;53.20;28.10;;;;;;;1.69;83.64;102147.55;104781;1270;99957;-77
2023/02/10 11:23:54;;;;;;;70.80;30.60;;;;;;;1.73;83.71;102154.91;105041;1268;98772;-79
2023/02/10 11:26:39;;;;;;;51.00;27.50;;;;;;;1.74;83.81;102161.70;105032;1271;96631;-76
2023/02/10 11:29:25;;;;;;;49.90;25.70;;;;;;;1.75;83.77;102160.96;104830;1272;96763;-84
2023/02/10 11:32:33;;;;;;;54.20;28.20;;;;;;;1.76;83.73;102161.39;105104;1276;101237;-82
2023/02/10 11:35:18;;;;;;;54.30;24.70;;;;;;;1.79;84.04;102156.26;104582;1267;100227;-76
2023/02/10 11:38:07;;;;;;;50.80;28.10;;;;;;;1.81;83.98;102163.02;104565;1270;97781;-75
2023/02/10 11:41:08;;;;;;;49.10;26.80;;;;;;;1.85;83.90;102167.38;104759;1267;96825;-77
2023/02/10 11:43:53;;;;;;;48.30;25.10;;;;;;;1.89;84.07;102163.09;104534;1268;97867;-77
2023/02/10 11:46:38;;;;;;;58.10;30.40;;;;;;;1.94;83.97;102157.33;104505;1270;100043;-78
2023/02/10 11:49:33;;;;;;;53.80;28.80;;;;;;;2.00;84.06;102166.61;104680;1267;99663;-88
2023/02/10 11:52:22;;;;;;;53.90;28.10;;;;;;;2.05;84.14;102178.27;105097;1273;97686;-78
2023/02/10 11:55:12;;;;;;;53.70;31.40;;;;;;;2.09;84.05;102181.35;104635;1270;96647;-77
2023/02/10 12:01:44;;;;;;;60.00;32.70;;;;;;;2.15;84.06;102180.30;105651;1273;101269;-84
2023/02/10 12:05:04;;;;;;;63.00;32.00;;;;;;;2.18;84.00;102183.96;105763;1271;100384;-90
2023/02/10 12:08:20;;;;;;;58.40;31.40;;;;;;;2.20;83.89;102188.23;104761;1270;97830;-89
2023/02/10 12:11:13;;;;;;;54.20;28.40;;;;;;;2.23;84.09;102185.75;104751;1268;96707;-77
2023/02/10 12:14:08;;;;;;;54.10;28.10;;;;;;;2.26;84.01;102186.81;106123;1270;96580;-88
2023/02/10 12:17:08;;;;;;;57.60;31.40;;;;;;;2.25;83.92;102187.91;105621;1270;100008;-86
2023/02/10 12:20:05;;;;;;;54.80;30.00;;;;;;;2.26;84.02;102186.14;105724;1271;100301;-83
2023/02/10 12:23:16;;;;;;;57.80;28.50;;;;;;;2.26;84.10;102177.98;105346;1270;97814;-86
2023/02/10 12:26:27;;;;;;;55.70;29.90;;;;;;;2.27;83.91;102174.40;106150;1270;96570;-89
2023/02/10 12:29:54;;;;;;;52.10;30.60;;;;;;;2.29;84.15;102176.92;106172;1267;96422;-79
2023/02/10 12:33:11;;;;;;;55.80;28.80;;;;;;;2.30;84.04;102171.25;105654;1272;101334;-83
2023/02/10 12:36:18;;;;;;;55.40;30.30;;;;;;;2.31;84.21;102171.55;106177;1273;100348;-92
2023/02/10 12:39:19;;;;;;;55.80;32.30;;;;;;;2.32;84.33;102170.23;105671;1270;97548;-80
2023/02/10 12:42:41;;;;;;;56.60;27.30;;;;;;;2.36;84.21;102168.92;106056;1267;95757;-82
2023/02/10 12:45:42;;;;;;;59.00;30.60;;;;;;;2.35;84.27;102176.02;105743;1270;97076;-85
2023/02/10 12:49:00;;;;;;;59.40;31.00;;;;;;;2.38;84.37;102173.41;105707;1268;101165;-82
2023/02/10 12:51:56;;;;;;;60.10;31.10;;;;;;;2.38;84.27;102171.29;105672;1271;100358;-83